sensor_id;sensor_type;location;lat;lon;timestamp;temperature;humidity
7167;DHT22;3625;51.762;14.320;2024-02-21T00:00:53;7.70;99.90
7167;DHT22;3625;51.762;14.320;2024-02-21T00:05:50;7.70;99.90
7167;DHT22;3625;51.762;14.320;2024-02-21T00:15:48;7.80;99.90
7167;DHT22;3625;51.762;14.320;2024-02-21T00:20:45;7.80;99.90
7167;DHT22;3625;51.762;14.320;2024-02-21T00:23:14;7.80;99.90
7167;DHT22;3625;51.762;14.320;2024-02-21T00:28:11;7.80;99.90
7167;DHT22;3625;51.762;14.320;2024-02-21T00:30:40;7.80;99.90
7167;DHT22;3625;51.762;14.320;2024-02-21T00:33:10;7.80;99.90
7167;DHT22;3625;51.762;14.320;2024-02-21T00:35:39;5.60;99.90
7167;DHT22;3625;51.762;14.320;2024-02-21T00:40:36;7.80;99.90
7167;DHT22;3625;51.762;14.320;2024-02-21T00:45:34;7.70;99.90
7167;DHT22;3625;51.762;14.320;2024-02-21T00:50:33;7.70;99.90
7167;DHT22;3625;51.762;14.320;2024-02-21T01:07:57;7.90;99.90
7167;DHT22;3625;51.762;14.320;2024-02-21T01:12:55;7.80;99.90
7167;DHT22;3625;51.762;14.320;2024-02-21T01:17:52;7.70;99.90
7167;DHT22;3625;51.762;14.320;2024-02-21T01:25:21;7.70;99.90
7167;DHT22;3625;51.762;14.320;2024-02-21T01:30:18;7.60;99.90
7167;DHT22;3625;51.762;14.320;2024-02-21T01:37:45;7.60;99.90
7167;DHT22;3625;51.762;14.320;2024-02-21T01:40:15;7.60;99.90
7167;DHT22;3625;51.762;14.320;2024-02-21T01:42:45;7.60;99.90
7167;DHT22;3625;51.762;14.320;2024-02-21T01:50:15;7.60;99.90
7167;DHT22;3625;51.762;14.320;2024-02-21T01:52:46;7.60;99.90
7167;DHT22;3625;51.762;14.320;2024-02-21T01:57:47;7.60;99.90
7167;DHT22;3625;51.762;14.320;2024-02-21T02:02:46;7.70;99.90
7167;DHT22;3625;51.762;14.320;2024-02-21T02:05:15;7.70;99.90
7167;DHT22;3625;51.762;14.320;2024-02-21T02:10:14;7.60;99.90
7167;DHT22;3625;51.762;14.320;2024-02-21T02:15:13;7.60;99.90
7167;DHT22;3625;51.762;14.320;2024-02-21T02:20:11;7.70;99.90
7167;DHT22;3625;51.762;14.320;2024-02-21T02:22:42;7.70;99.90
7167;DHT22;3625;51.762;14.320;2024-02-21T02:25:16;7.70;99.90
7167;DHT22;3625;51.762;14.320;2024-02-21T02:27:45;7.70;99.90
7167;DHT22;3625;51.762;14.320;2024-02-21T02:30:14;7.80;99.90
7167;DHT22;3625;51.762;14.320;2024-02-21T02:32:45;7.80;99.90
7167;DHT22;3625;51.762;14.320;2024-02-21T02:35:14;7.80;99.90
7167;DHT22;3625;51.762;14.320;2024-02-21T02:37:48;7.80;99.90
7167;DHT22;3625;51.762;14.320;2024-02-21T02:40:19;7.80;99.90
7167;DHT22;3625;51.762;14.320;2024-02-21T02:42:48;7.60;99.90
7167;DHT22;3625;51.762;14.320;2024-02-21T02:57:45;7.90;99.90
7167;DHT22;3625;51.762;14.320;2024-02-21T03:00:14;7.90;99.90
7167;DHT22;3625;51.762;14.320;2024-02-21T03:02:46;7.90;99.90
7167;DHT22;3625;51.762;14.320;2024-02-21T03:05:18;8.00;99.90
7167;DHT22;3625;51.762;14.320;2024-02-21T03:07:48;7.90;99.90
7167;DHT22;3625;51.762;14.320;2024-02-21T03:12:48;7.90;99.90
7167;DHT22;3625;51.762;14.320;2024-02-21T03:15:16;7.90;99.90
7167;DHT22;3625;51.762;14.320;2024-02-21T03:20:14;7.80;99.90
7167;DHT22;3625;51.762;14.320;2024-02-21T03:22:43;8.50;99.90
7167;DHT22;3625;51.762;14.320;2024-02-21T03:30:13;7.80;99.90
7167;DHT22;3625;51.762;14.320;2024-02-21T03:40:09;7.70;99.90
7167;DHT22;3625;51.762;14.320;2024-02-21T03:45:08;7.60;99.90
7167;DHT22;3625;51.762;14.320;2024-02-21T03:47:38;7.60;99.90
7167;DHT22;3625;51.762;14.320;2024-02-21T03:50:08;7.60;99.90
7167;DHT22;3625;51.762;14.320;2024-02-21T03:55:07;7.60;99.90
7167;DHT22;3625;51.762;14.320;2024-02-21T04:00:06;7.50;99.90
7167;DHT22;3625;51.762;14.320;2024-02-21T04:02:40;7.40;99.90
7167;DHT22;3625;51.762;14.320;2024-02-21T04:07:39;7.40;99.90
7167;DHT22;3625;51.762;14.320;2024-02-21T04:10:08;7.40;99.90
7167;DHT22;3625;51.762;14.320;2024-02-21T04:12:37;7.30;99.90
7167;DHT22;3625;51.762;14.320;2024-02-21T04:17:36;7.40;99.90
7167;DHT22;3625;51.762;14.320;2024-02-21T04:20:13;7.30;99.90
7167;DHT22;3625;51.762;14.320;2024-02-21T04:22:43;7.30;99.90
7167;DHT22;3625;51.762;14.320;2024-02-21T04:35:10;7.20;99.90
7167;DHT22;3625;51.762;14.320;2024-02-21T04:40:08;7.20;99.90
7167;DHT22;3625;51.762;14.320;2024-02-21T04:45:07;7.20;99.90
7167;DHT22;3625;51.762;14.320;2024-02-21T04:47:36;7.20;99.90
7167;DHT22;3625;51.762;14.320;2024-02-21T04:50:05;7.20;99.90
7167;DHT22;3625;51.762;14.320;2024-02-21T04:52:36;7.20;99.90
7167;DHT22;3625;51.762;14.320;2024-02-21T04:57:34;7.20;99.90
7167;DHT22;3625;51.762;14.320;2024-02-21T05:00:03;7.20;99.90
7167;DHT22;3625;51.762;14.320;2024-02-21T05:02:33;7.20;99.90
7167;DHT22;3625;51.762;14.320;2024-02-21T05:05:02;7.20;99.90
7167;DHT22;3625;51.762;14.320;2024-02-21T05:07:31;7.10;99.90
7167;DHT22;3625;51.762;14.320;2024-02-21T05:10:01;7.10;99.90
7167;DHT22;3625;51.762;14.320;2024-02-21T05:19:57;7.00;99.90
7167;DHT22;3625;51.762;14.320;2024-02-21T05:27:27;6.80;99.90
7167;DHT22;3625;51.762;14.320;2024-02-21T05:32:25;6.80;99.90
7167;DHT22;3625;51.762;14.320;2024-02-21T05:44:53;6.80;99.90
7167;DHT22;3625;51.762;14.320;2024-02-21T05:52:20;6.90;99.90
7167;DHT22;3625;51.762;14.320;2024-02-21T05:54:50;6.90;99.90
7167;DHT22;3625;51.762;14.320;2024-02-21T05:57:19;6.90;99.90
7167;DHT22;3625;51.762;14.320;2024-02-21T06:02:17;6.90;99.90
7167;DHT22;3625;51.762;14.320;2024-02-21T06:04:46;7.00;99.90
7167;DHT22;3625;51.762;14.320;2024-02-21T06:07:15;7.00;99.90
7167;DHT22;3625;51.762;14.320;2024-02-21T06:17:10;7.00;99.90
7167;DHT22;3625;51.762;14.320;2024-02-21T06:19:42;7.10;99.90
7167;DHT22;3625;51.762;14.320;2024-02-21T06:37:07;7.20;99.90
7167;DHT22;3625;51.762;14.320;2024-02-21T06:39:35;8.00;99.90
7167;DHT22;3625;51.762;14.320;2024-02-21T06:42:07;7.30;99.90
7167;DHT22;3625;51.762;14.320;2024-02-21T06:47:07;7.30;99.90
7167;DHT22;3625;51.762;14.320;2024-02-21T06:52:07;7.40;99.90
7167;DHT22;3625;51.762;14.320;2024-02-21T07:04:34;7.70;99.90
7167;DHT22;3625;51.762;14.320;2024-02-21T07:07:03;7.80;99.90
7167;DHT22;3625;51.762;14.320;2024-02-21T07:09:33;7.90;99.90
7167;DHT22;3625;51.762;14.320;2024-02-21T07:14:32;7.90;99.90
7167;DHT22;3625;51.762;14.320;2024-02-21T07:27:00;8.20;99.90
7167;DHT22;3625;51.762;14.320;2024-02-21T07:29:31;8.30;99.90
7167;DHT22;3625;51.762;14.320;2024-02-21T07:32:00;8.20;99.90
7167;DHT22;3625;51.762;14.320;2024-02-21T07:36:58;8.40;99.90
7167;DHT22;3625;51.762;14.320;2024-02-21T07:44:25;8.50;99.90
7167;DHT22;3625;51.762;14.320;2024-02-21T07:46:54;8.60;99.90
7167;DHT22;3625;51.762;14.320;2024-02-21T07:51:53;8.60;99.90
7167;DHT22;3625;51.762;14.320;2024-02-21T07:54:22;8.50;99.90
7167;DHT22;3625;51.762;14.320;2024-02-21T07:56:53;8.40;99.90
7167;DHT22;3625;51.762;14.320;2024-02-21T08:01:56;8.30;99.90
7167;DHT22;3625;51.762;14.320;2024-02-21T08:04:26;8.40;99.90
7167;DHT22;3625;51.762;14.320;2024-02-21T08:14:27;9.30;99.90
7167;DHT22;3625;51.762;14.320;2024-02-21T08:31:53;9.00;99.90
7167;DHT22;3625;51.762;14.320;2024-02-21T08:39:19;9.20;99.90
7167;DHT22;3625;51.762;14.320;2024-02-21T08:44:24;9.60;99.90
7167;DHT22;3625;51.762;14.320;2024-02-21T08:46:55;9.70;99.90
7167;DHT22;3625;51.762;14.320;2024-02-21T08:49:24;9.70;99.90
7167;DHT22;3625;51.762;14.320;2024-02-21T08:52:00;9.80;99.90
7167;DHT22;3625;51.762;14.320;2024-02-21T08:56:59;9.80;99.90
7167;DHT22;3625;51.762;14.320;2024-02-21T08:59:28;9.90;99.90
7167;DHT22;3625;51.762;14.320;2024-02-21T09:01:58;10.00;99.90
7167;DHT22;3625;51.762;14.320;2024-02-21T09:06:56;10.50;99.90
7167;DHT22;3625;51.762;14.320;2024-02-21T09:19:24;11.40;99.90
7167;DHT22;3625;51.762;14.320;2024-02-21T09:34:24;11.90;99.90
7167;DHT22;3625;51.762;14.320;2024-02-21T09:41:53;12.10;99.90
7167;DHT22;3625;51.762;14.320;2024-02-21T09:44:32;12.10;99.90
7167;DHT22;3625;51.762;14.320;2024-02-21T09:47:07;12.10;99.90
7167;DHT22;3625;51.762;14.320;2024-02-21T09:49:40;12.10;99.90
7167;DHT22;3625;51.762;14.320;2024-02-21T09:54:43;12.10;99.90
7167;DHT22;3625;51.762;14.320;2024-02-21T09:57:13;12.10;99.90
7167;DHT22;3625;51.762;14.320;2024-02-21T09:59:43;12.20;99.90
7167;DHT22;3625;51.762;14.320;2024-02-21T10:04:44;12.40;99.90
7167;DHT22;3625;51.762;14.320;2024-02-21T10:07:13;12.50;99.90
7167;DHT22;3625;51.762;14.320;2024-02-21T10:12:12;12.40;99.90
7167;DHT22;3625;51.762;14.320;2024-02-21T10:17:16;12.50;99.90
7167;DHT22;3625;51.762;14.320;2024-02-21T10:19:47;12.60;99.90
7167;DHT22;3625;51.762;14.320;2024-02-21T10:27:16;12.70;99.90
7167;DHT22;3625;51.762;14.320;2024-02-21T10:29:49;12.80;99.90
7167;DHT22;3625;51.762;14.320;2024-02-21T10:34:48;12.70;99.90
7167;DHT22;3625;51.762;14.320;2024-02-21T10:37:21;12.50;99.90
7167;DHT22;3625;51.762;14.320;2024-02-21T10:39:50;12.40;99.90
7167;DHT22;3625;51.762;14.320;2024-02-21T10:42:21;12.30;99.90
7167;DHT22;3625;51.762;14.320;2024-02-21T10:44:51;12.40;99.90
7167;DHT22;3625;51.762;14.320;2024-02-21T10:47:22;12.30;99.90
7167;DHT22;3625;51.762;14.320;2024-02-21T10:49:59;12.30;99.90
7167;DHT22;3625;51.762;14.320;2024-02-21T10:52:42;12.40;99.90
7167;DHT22;3625;51.762;14.320;2024-02-21T10:55:20;12.40;99.90
7167;DHT22;3625;51.762;14.320;2024-02-21T10:57:55;12.40;99.90
7167;DHT22;3625;51.762;14.320;2024-02-21T11:00:26;12.50;99.90
7167;DHT22;3625;51.762;14.320;2024-02-21T11:05:30;10.70;99.90
7167;DHT22;3625;51.762;14.320;2024-02-21T11:08:00;12.60;99.90
7167;DHT22;3625;51.762;14.320;2024-02-21T11:13:06;12.60;99.90
7167;DHT22;3625;51.762;14.320;2024-02-21T11:15:35;12.60;99.90
7167;DHT22;3625;51.762;14.320;2024-02-21T11:20:36;13.20;99.90
7167;DHT22;3625;51.762;14.320;2024-02-21T11:28:04;13.90;99.90
7167;DHT22;3625;51.762;14.320;2024-02-21T11:30:36;14.00;99.90
7167;DHT22;3625;51.762;14.320;2024-02-21T11:33:06;13.80;99.90
7167;DHT22;3625;51.762;14.320;2024-02-21T11:35:37;13.80;99.90
7167;DHT22;3625;51.762;14.320;2024-02-21T11:38:10;13.80;99.90
7167;DHT22;3625;51.762;14.320;2024-02-21T11:40:45;13.60;99.90
7167;DHT22;3625;51.762;14.320;2024-02-21T11:43:15;13.80;99.90
7167;DHT22;3625;51.762;14.320;2024-02-21T11:45:44;14.10;99.90
7167;DHT22;3625;51.762;14.320;2024-02-21T11:50:53;14.00;99.90
7167;DHT22;3625;51.762;14.320;2024-02-21T12:00:53;13.80;99.90
7167;DHT22;3625;51.762;14.320;2024-02-21T12:05:53;13.60;99.90
7167;DHT22;3625;51.762;14.320;2024-02-21T12:08:24;14.00;99.90
7167;DHT22;3625;51.762;14.320;2024-02-21T12:10:53;14.20;99.90
7167;DHT22;3625;51.762;14.320;2024-02-21T12:13:23;14.10;99.90
7167;DHT22;3625;51.762;14.320;2024-02-21T12:20:49;14.00;99.90
7167;DHT22;3625;51.762;14.320;2024-02-21T12:25:51;13.90;99.90
7167;DHT22;3625;51.762;14.320;2024-02-21T12:28:21;13.90;99.90
7167;DHT22;3625;51.762;14.320;2024-02-21T12:35:49;13.50;99.90
7167;DHT22;3625;51.762;14.320;2024-02-21T12:38:19;13.70;99.90
7167;DHT22;3625;51.762;14.320;2024-02-21T12:50:48;13.20;99.90
7167;DHT22;3625;51.762;14.320;2024-02-21T12:53:19;13.20;99.90
7167;DHT22;3625;51.762;14.320;2024-02-21T13:00:58;13.70;99.90
7167;DHT22;3625;51.762;14.320;2024-02-21T13:08:30;13.80;99.90
7167;DHT22;3625;51.762;14.320;2024-02-21T13:10:58;13.60;99.90
7167;DHT22;3625;51.762;14.320;2024-02-21T13:15:56;13.60;99.90
7167;DHT22;3625;51.762;14.320;2024-02-21T13:18:25;13.50;99.90
7167;DHT22;3625;51.762;14.320;2024-02-21T13:25:53;13.70;99.90
7167;DHT22;3625;51.762;14.320;2024-02-21T13:35:49;13.90;99.90
7167;DHT22;3625;51.762;14.320;2024-02-21T13:43:17;13.80;99.90
7167;DHT22;3625;51.762;14.320;2024-02-21T13:45:55;13.80;99.90
7167;DHT22;3625;51.762;14.320;2024-02-21T13:48:25;13.80;99.90
7167;DHT22;3625;51.762;14.320;2024-02-21T13:58:24;13.60;99.90
7167;DHT22;3625;51.762;14.320;2024-02-21T14:00:54;13.50;99.90
7167;DHT22;3625;51.762;14.320;2024-02-21T14:03:24;13.40;99.90
7167;DHT22;3625;51.762;14.320;2024-02-21T14:13:21;13.00;99.90
7167;DHT22;3625;51.762;14.320;2024-02-21T14:15:51;12.90;99.90
7167;DHT22;3625;51.762;14.320;2024-02-21T14:25:48;12.40;99.90
7167;DHT22;3625;51.762;14.320;2024-02-21T14:33:22;12.10;99.90
7167;DHT22;3625;51.762;14.320;2024-02-21T14:35:50;12.00;99.90
7167;DHT22;3625;51.762;14.320;2024-02-21T14:38:19;11.80;99.90
7167;DHT22;3625;51.762;14.320;2024-02-21T14:40:48;11.80;99.90
7167;DHT22;3625;51.762;14.320;2024-02-21T14:43:16;11.70;99.90
7167;DHT22;3625;51.762;14.320;2024-02-21T14:50:49;11.60;99.90
7167;DHT22;3625;51.762;14.320;2024-02-21T14:53:18;11.50;99.90
7167;DHT22;3625;51.762;14.320;2024-02-21T15:03:16;11.30;99.90
7167;DHT22;3625;51.762;14.320;2024-02-21T15:13:17;12.00;99.90
7167;DHT22;3625;51.762;14.320;2024-02-21T15:15:47;11.20;99.90
7167;DHT22;3625;51.762;14.320;2024-02-21T15:18:18;11.10;99.90
7167;DHT22;3625;51.762;14.320;2024-02-21T15:30:45;11.10;99.90
7167;DHT22;3625;51.762;14.320;2024-02-21T15:38:13;10.90;99.90
7167;DHT22;3625;51.762;14.320;2024-02-21T15:43:14;10.60;99.90
7167;DHT22;3625;51.762;14.320;2024-02-21T15:45:43;10.40;99.90
7167;DHT22;3625;51.762;14.320;2024-02-21T15:53:14;9.90;99.90
7167;DHT22;3625;51.762;14.320;2024-02-21T16:15:45;8.40;99.90
7167;DHT22;3625;51.762;14.320;2024-02-21T16:18:15;8.30;99.90
7167;DHT22;3625;51.762;14.320;2024-02-21T16:23:18;8.00;99.90
7167;DHT22;3625;51.762;14.320;2024-02-21T16:40:43;7.30;99.90
7167;DHT22;3625;51.762;14.320;2024-02-21T16:50:39;7.10;99.90
7167;DHT22;3625;51.762;14.320;2024-02-21T16:55:54;7.00;99.90
7167;DHT22;3625;51.762;14.320;2024-02-21T16:58:23;9.40;99.90
7167;DHT22;3625;51.762;14.320;2024-02-21T17:00:52;6.90;99.90
7167;DHT22;3625;51.762;14.320;2024-02-21T17:10:54;6.70;99.90
7167;DHT22;3625;51.762;14.320;2024-02-21T17:13:24;6.70;99.90
7167;DHT22;3625;51.762;14.320;2024-02-21T17:15:55;6.60;99.90
7167;DHT22;3625;51.762;14.320;2024-02-21T17:18:24;6.60;99.90
7167;DHT22;3625;51.762;14.320;2024-02-21T17:20:54;6.60;99.90
7167;DHT22;3625;51.762;14.320;2024-02-21T17:28:22;6.50;99.90
7167;DHT22;3625;51.762;14.320;2024-02-21T17:43:19;6.40;99.90
7167;DHT22;3625;51.762;14.320;2024-02-21T17:58:20;6.30;99.90
7167;DHT22;3625;51.762;14.320;2024-02-21T18:10:45;6.40;99.90
7167;DHT22;3625;51.762;14.320;2024-02-21T18:15:44;6.50;99.90
7167;DHT22;3625;51.762;14.320;2024-02-21T18:18:13;6.50;99.90
7167;DHT22;3625;51.762;14.320;2024-02-21T18:33:10;6.50;99.90
7167;DHT22;3625;51.762;14.320;2024-02-21T18:48:06;6.50;99.90
7167;DHT22;3625;51.762;14.320;2024-02-21T18:50:41;6.50;99.90
7167;DHT22;3625;51.762;14.320;2024-02-21T19:08:06;6.70;99.90
7167;DHT22;3625;51.762;14.320;2024-02-21T19:13:05;6.80;99.90
7167;DHT22;3625;51.762;14.320;2024-02-21T19:23:08;6.90;99.90
7167;DHT22;3625;51.762;14.320;2024-02-21T19:30:40;7.00;99.90
7167;DHT22;3625;51.762;14.320;2024-02-21T19:38:11;6.90;99.90
7167;DHT22;3625;51.762;14.320;2024-02-21T19:43:09;6.90;99.90
7167;DHT22;3625;51.762;14.320;2024-02-21T19:48:09;7.00;99.90
7167;DHT22;3625;51.762;14.320;2024-02-21T19:50:40;7.00;99.90
7167;DHT22;3625;51.762;14.320;2024-02-21T20:08:11;7.10;99.90
7167;DHT22;3625;51.762;14.320;2024-02-21T20:18:09;7.10;99.90
7167;DHT22;3625;51.762;14.320;2024-02-21T20:20:39;7.10;99.90
7167;DHT22;3625;51.762;14.320;2024-02-21T20:48:07;7.10;99.90
7167;DHT22;3625;51.762;14.320;2024-02-21T20:50:36;7.20;99.90
7167;DHT22;3625;51.762;14.320;2024-02-21T20:55:36;7.30;99.90
7167;DHT22;3625;51.762;14.320;2024-02-21T21:03:04;7.40;99.90
7167;DHT22;3625;51.762;14.320;2024-02-21T21:08:02;7.40;99.90
7167;DHT22;3625;51.762;14.320;2024-02-21T21:13:01;7.40;99.90
7167;DHT22;3625;51.762;14.320;2024-02-21T21:20:30;7.40;99.90
7167;DHT22;3625;51.762;14.320;2024-02-21T21:30:27;7.50;99.90
7167;DHT22;3625;51.762;14.320;2024-02-21T21:37:57;7.60;99.90
7167;DHT22;3625;51.762;14.320;2024-02-21T21:45:27;7.80;99.90
7167;DHT22;3625;51.762;14.320;2024-02-21T21:47:55;7.80;99.90
7167;DHT22;3625;51.762;14.320;2024-02-21T21:55:22;7.90;99.90
7167;DHT22;3625;51.762;14.320;2024-02-21T22:00:20;8.00;99.90
7167;DHT22;3625;51.762;14.320;2024-02-21T22:02:50;8.00;99.90
7167;DHT22;3625;51.762;14.320;2024-02-21T22:07:47;8.00;99.90
7167;DHT22;3625;51.762;14.320;2024-02-21T22:10:16;8.10;99.90
7167;DHT22;3625;51.762;14.320;2024-02-21T22:20:15;8.10;99.90
7167;DHT22;3625;51.762;14.320;2024-02-21T22:25:18;8.20;99.90
7167;DHT22;3625;51.762;14.320;2024-02-21T22:35:15;8.30;99.90
7167;DHT22;3625;51.762;14.320;2024-02-21T22:52:41;8.20;99.90
7167;DHT22;3625;51.762;14.320;2024-02-21T22:57:39;8.20;99.90
7167;DHT22;3625;51.762;14.320;2024-02-21T23:00:11;8.10;99.90
7167;DHT22;3625;51.762;14.320;2024-02-21T23:05:12;8.10;99.90
7167;DHT22;3625;51.762;14.320;2024-02-21T23:07:46;8.00;99.90
7167;DHT22;3625;51.762;14.320;2024-02-21T23:17:48;7.90;99.90
7167;DHT22;3625;51.762;14.320;2024-02-21T23:22:46;7.90;99.90
7167;DHT22;3625;51.762;14.320;2024-02-21T23:40:12;7.70;99.90
7167;DHT22;3625;51.762;14.320;2024-02-21T23:45:14;7.60;99.90
7167;DHT22;3625;51.762;14.320;2024-02-21T23:55:11;7.60;99.90
